createdAt,value
2023-04-19T05:03:18.716Z,500.00
2023-04-19T05:04:19.779Z,500.00
2023-04-19T05:05:18.746Z,500.00
2023-04-19T05:06:18.743Z,500.00
2023-04-19T05:07:18.787Z,500.00
2023-04-19T05:08:18.853Z,500.00
2023-04-19T05:09:18.849Z,400.00
2023-04-19T05:10:18.889Z,400.00
2023-04-19T05:11:19.901Z,400.00
2023-04-19T05:12:18.918Z,400.00
2023-04-19T05:13:19.952Z,400.00
2023-04-19T05:14:19.022Z,400.00
2023-04-19T05:15:19.063Z,400.00
2023-04-19T05:16:20.209Z,400.00
2023-04-19T05:17:19.198Z,400.00
2023-04-19T05:18:19.225Z,400.00
2023-04-19T05:19:19.331Z,400.00
2023-04-19T05:20:19.308Z,400.00
2023-04-19T05:21:19.369Z,404.00
2023-04-19T05:22:20.429Z,443.00
2023-04-19T05:23:20.442Z,481.00
2023-04-19T05:24:20.497Z,500.00
2023-04-19T05:25:19.520Z,500.00
2023-04-19T05:26:19.585Z,500.00
2023-04-19T05:27:20.644Z,500.00
2023-04-19T05:28:19.700Z,500.00
2023-04-19T05:29:19.725Z,502.00
2023-04-19T05:30:20.777Z,501.00
2023-04-19T05:31:19.879Z,501.00
2023-04-19T05:32:20.888Z,500.00
2023-04-19T05:33:20.929Z,500.00
2023-04-19T05:34:22.172Z,500.00
2023-04-19T05:35:20.028Z,500.00
2023-04-19T05:36:21.100Z,500.00
2023-04-19T05:37:20.116Z,503.00
2023-04-19T05:38:21.136Z,503.00
2023-04-19T05:39:20.189Z,505.00
2023-04-19T05:40:21.233Z,506.00
2023-04-19T05:41:21.430Z,518.00
2023-04-19T05:42:21.405Z,516.00
2023-04-19T05:43:21.387Z,517.00
2023-04-19T05:44:20.541Z,550.00
2023-04-19T05:45:21.414Z,536.00
2023-04-19T05:46:20.477Z,546.00
2023-04-19T05:47:20.495Z,545.00
2023-04-19T05:48:21.474Z,538.00
2023-04-19T05:49:21.515Z,535.00
2023-04-19T05:50:21.594Z,535.00
2023-04-19T05:51:20.528Z,533.00
2023-04-19T05:52:21.646Z,534.00
2023-04-19T05:53:21.599Z,538.00
2023-04-19T05:54:21.655Z,535.00
2023-04-19T05:55:20.592Z,536.00
2023-04-19T05:56:21.651Z,538.00
2023-04-19T05:57:21.635Z,535.00
2023-04-19T05:58:21.675Z,534.00
2023-04-19T05:59:21.690Z,531.00
2023-04-19T06:00:20.734Z,539.00
2023-04-19T06:01:21.769Z,562.00
2023-04-19T06:02:21.297Z,548.00
2023-04-19T06:03:21.037Z,550.00
2023-04-19T06:04:21.612Z,544.00
2023-04-19T06:05:22.072Z,569.00
2023-04-19T06:06:22.128Z,563.00
2023-04-19T06:07:30.935Z,552.00
2023-04-19T06:08:22.041Z,553.00
2023-04-19T06:09:22.064Z,548.00
2023-04-19T06:10:22.044Z,543.00
2023-04-19T06:11:26.964Z,560.00
2023-04-19T06:12:22.065Z,553.00
2023-04-19T06:13:21.059Z,553.00
2023-04-19T06:14:22.024Z,548.00
2023-04-19T06:15:22.001Z,552.00
2023-04-19T06:16:22.045Z,542.00
2023-04-19T06:17:22.012Z,540.00
2023-04-19T06:18:21.988Z,543.00
2023-04-19T06:19:21.997Z,538.00
2023-04-19T06:20:21.997Z,541.00
2023-04-19T06:21:21.007Z,569.00
2023-04-19T06:22:21.306Z,561.00
2023-04-19T06:23:20.949Z,551.00
2023-04-19T06:24:20.955Z,542.00
2023-04-19T06:25:21.937Z,541.00
2023-04-19T06:26:20.932Z,538.00
2023-04-19T06:27:21.938Z,536.00
2023-04-19T06:28:21.916Z,528.00
2023-04-19T06:29:20.922Z,525.00
2023-04-19T06:30:21.892Z,521.00
2023-04-19T06:31:21.943Z,517.00
2023-04-19T06:32:20.932Z,519.00
2023-04-19T06:33:21.884Z,515.00
2023-04-19T06:34:20.896Z,515.00
2023-04-19T06:35:21.929Z,512.00
2023-04-19T06:36:21.974Z,512.00
2023-04-19T06:37:21.066Z,514.00
2023-04-19T06:38:22.073Z,513.00
2023-04-19T06:39:22.087Z,506.00
2023-04-19T06:40:21.118Z,508.00
2023-04-19T06:41:21.183Z,507.00
2023-04-19T06:42:21.186Z,504.00
2023-04-19T06:43:22.218Z,510.00
2023-04-19T06:44:22.260Z,502.00
2023-04-19T06:45:22.299Z,505.00
2023-04-19T06:46:21.406Z,501.00
2023-04-19T06:47:21.382Z,505.00
2023-04-19T06:48:22.391Z,509.00
2023-04-19T06:49:22.432Z,504.00
2023-04-19T06:50:22.510Z,508.00
2023-04-19T06:51:22.522Z,543.00
2023-04-19T06:52:22.675Z,532.00
2023-04-19T06:53:22.525Z,533.00
2023-04-19T06:54:22.573Z,524.00
2023-04-19T06:55:22.630Z,524.00
2023-04-19T06:56:21.608Z,525.00
2023-04-19T06:57:22.184Z,529.00
2023-04-19T06:58:21.726Z,527.00
2023-04-19T06:59:21.761Z,527.00
2023-04-19T07:00:22.832Z,532.00
2023-04-19T07:01:21.886Z,530.00
2023-04-19T07:02:22.092Z,528.00
2023-04-19T07:03:22.077Z,531.00
2023-04-19T07:04:22.389Z,531.00
2023-04-19T07:05:21.978Z,531.00
2023-04-19T07:06:23.022Z,529.00
2023-04-19T07:07:23.056Z,526.00
2023-04-19T07:08:23.049Z,532.00
2023-04-19T07:09:23.093Z,526.00
2023-04-19T07:10:23.132Z,531.00
2023-04-19T07:11:23.123Z,524.00
2023-04-19T07:12:22.158Z,531.00
2023-04-19T07:13:23.327Z,532.00
2023-04-19T07:14:23.181Z,532.00
2023-04-19T07:15:22.199Z,525.00
2023-04-19T07:16:23.289Z,529.00
2023-04-19T07:17:22.251Z,533.00
2023-04-19T07:18:22.238Z,532.00
2023-04-19T07:19:22.236Z,529.00
2023-04-19T07:20:23.280Z,532.00
2023-04-19T07:21:23.262Z,531.00
2023-04-19T07:22:23.315Z,533.00
2023-04-19T07:23:22.302Z,533.00
2023-04-19T07:24:22.331Z,531.00
2023-04-19T07:25:23.582Z,532.00
2023-04-19T07:26:23.438Z,545.00
2023-04-19T07:27:22.444Z,546.00
2023-04-19T07:28:22.454Z,546.00
2023-04-19T07:29:23.455Z,549.00
2023-04-19T07:30:23.460Z,610.00
2023-04-19T07:31:22.460Z,649.00
2023-04-19T07:32:22.543Z,673.00
2023-04-19T07:33:25.958Z,661.00
2023-04-19T07:34:22.493Z,630.00
2023-04-19T07:35:22.498Z,618.00
2023-04-19T07:36:22.481Z,623.00
2023-04-19T07:37:22.707Z,601.00
2023-04-19T07:38:23.589Z,590.00
2023-04-19T07:39:23.872Z,582.00
2023-04-19T07:40:23.694Z,577.00
2023-04-19T07:41:23.725Z,568.00
2023-04-19T07:42:22.820Z,564.00
2023-04-19T07:43:23.813Z,562.00
2023-04-19T07:44:23.845Z,561.00
2023-04-19T07:45:22.911Z,559.00
2023-04-19T07:46:24.052Z,553.00
2023-04-19T07:47:24.720Z,555.00
2023-04-19T07:48:22.983Z,563.00
2023-04-19T07:49:24.017Z,560.00
2023-04-19T07:50:24.040Z,556.00
2023-04-19T07:51:23.056Z,595.00
2023-04-19T07:52:23.206Z,585.00
2023-04-19T07:53:23.172Z,587.00
2023-04-19T07:54:24.160Z,589.00
2023-04-19T07:55:24.774Z,591.00
2023-04-19T07:56:24.234Z,588.00
2023-04-19T07:57:24.194Z,597.00
2023-04-19T07:58:24.237Z,594.00
2023-04-19T07:59:24.246Z,596.00
2023-04-19T08:00:24.271Z,597.00
2023-04-19T08:01:24.298Z,597.00
2023-04-19T08:02:23.637Z,600.00
2023-04-19T08:03:24.540Z,600.00
2023-04-19T08:04:25.113Z,603.00
2023-04-19T08:05:24.476Z,601.00
2023-04-19T08:06:23.385Z,602.00
2023-04-19T08:07:24.412Z,608.00
2023-04-19T08:08:23.396Z,611.00
2023-04-19T08:09:23.448Z,606.00
2023-04-19T08:10:24.435Z,611.00
2023-04-19T08:11:24.506Z,612.00
2023-04-19T08:12:35.134Z,614.00
2023-04-19T08:13:24.496Z,615.00
2023-04-19T08:14:37.246Z,615.00
2023-04-19T08:16:05.110Z,615.00
2023-04-19T08:17:27.980Z,616.00
2023-04-19T08:18:24.590Z,616.00
2023-04-19T08:19:24.452Z,619.00
2023-04-19T08:20:24.505Z,621.00
2023-04-19T08:21:31.285Z,628.00
2023-04-19T08:22:24.455Z,616.00
2023-04-19T08:23:27.712Z,619.00
2023-04-19T08:24:24.437Z,616.00
2023-04-19T08:25:24.427Z,618.00
2023-04-19T08:26:24.423Z,621.00
2023-04-19T08:27:24.424Z,632.00
2023-04-19T08:28:24.450Z,641.00
2023-04-19T08:29:24.410Z,640.00
2023-04-19T08:30:24.416Z,639.00
2023-04-19T08:31:24.507Z,642.00
2023-04-19T08:32:23.401Z,640.00
2023-04-19T08:33:24.423Z,649.00
2023-04-19T08:34:23.361Z,648.00
2023-04-19T08:35:24.449Z,643.00
2023-04-19T08:36:35.401Z,649.00
2023-04-19T08:37:24.547Z,649.00
2023-04-19T08:38:23.497Z,646.00
2023-04-19T08:39:32.374Z,642.00
2023-04-19T08:40:24.635Z,642.00
2023-04-19T08:41:23.455Z,634.00
2023-04-19T08:42:35.821Z,629.00
2023-04-19T08:43:24.722Z,644.00
2023-04-19T08:44:34.995Z,633.00
2023-04-19T08:45:27.896Z,572.00
2023-04-19T08:46:23.443Z,519.00
2023-04-19T08:47:31.235Z,500.00
2023-04-19T08:48:24.405Z,545.00
2023-04-19T08:49:24.378Z,580.00
2023-04-19T08:50:32.597Z,503.00
2023-04-19T08:51:24.359Z,448.00
2023-04-19T08:52:24.362Z,400.00
2023-04-19T08:53:25.922Z,400.00
2023-04-19T08:56:10.624Z,500.00
2023-04-19T08:56:58.182Z,500.00
2023-04-19T08:57:57.402Z,500.00
2023-04-19T08:59:11.489Z,500.00
2023-04-19T08:59:58.193Z,500.00
2023-04-19T09:00:57.147Z,500.00
2023-04-19T09:01:58.979Z,500.00
2023-04-19T09:02:58.340Z,500.00
2023-04-19T09:04:07.404Z,500.00
2023-04-19T09:04:59.002Z,500.00
2023-04-19T09:05:58.444Z,500.00
2023-04-19T09:06:57.100Z,500.00
2023-04-19T09:07:57.113Z,500.00
2023-04-19T09:08:58.113Z,500.00
2023-04-19T09:10:02.871Z,500.00
2023-04-19T09:10:58.090Z,500.00
2023-04-19T09:11:58.097Z,500.00
2023-04-19T09:12:58.087Z,500.00
2023-04-19T09:13:57.199Z,500.00
2023-04-19T09:15:01.632Z,500.00
2023-04-19T09:15:58.270Z,500.00
2023-04-19T09:16:58.261Z,500.00
2023-04-19T09:17:58.697Z,500.00
2023-04-19T09:19:05.436Z,500.00
2023-04-19T09:19:58.333Z,500.00
2023-04-19T09:20:58.314Z,500.00
2023-04-19T09:21:58.298Z,500.00
2023-04-19T09:22:58.301Z,500.00
2023-04-19T09:23:58.294Z,500.00
2023-04-19T09:26:58.313Z,505.00
2023-04-19T09:27:58.263Z,484.00
2023-04-19T09:28:58.267Z,508.00
2023-04-19T09:29:58.272Z,533.00
2023-04-19T09:31:05.786Z,527.00
2023-04-19T09:31:58.334Z,513.00
2023-04-19T09:32:59.334Z,517.00
2023-04-19T09:33:58.282Z,526.00
2023-04-19T09:34:58.320Z,532.00
2023-04-19T09:35:58.226Z,540.00
2023-04-19T09:37:09.047Z,530.00
2023-04-19T09:38:05.434Z,530.00
2023-04-19T09:38:58.247Z,530.00
2023-04-19T09:39:58.217Z,531.00
2023-04-19T09:40:58.215Z,531.00
2023-04-19T09:41:57.214Z,533.00
2023-04-19T09:43:08.747Z,535.00
2023-04-19T09:44:13.047Z,530.00
2023-04-19T09:45:57.172Z,530.00
2023-04-19T09:46:57.186Z,550.00
2023-04-19T09:47:58.189Z,550.00
2023-04-19T09:48:58.718Z,544.00
2023-04-19T09:49:58.544Z,563.00
2023-04-19T09:51:02.427Z,598.00
2023-04-19T09:51:58.167Z,599.00
2023-04-19T09:52:58.100Z,605.00
2023-04-19T09:53:58.094Z,613.00
2023-04-19T09:54:58.105Z,585.00
2023-04-19T09:56:01.210Z,589.00
2023-04-19T09:57:00.177Z,598.00
2023-04-19T09:57:58.074Z,599.00
2023-04-19T09:59:04.903Z,606.00
2023-04-19T09:59:58.123Z,600.00
2023-04-19T10:01:10.764Z,607.00
2023-04-19T10:01:58.145Z,601.00
2023-04-19T10:02:57.166Z,612.00
2023-04-19T10:05:11.198Z,688.00
2023-04-19T10:05:58.194Z,603.00
2023-04-19T10:07:19.461Z,619.00
2023-04-19T10:07:59.962Z,602.00
2023-04-19T10:08:58.026Z,603.00
2023-04-19T10:10:02.247Z,620.00
2023-04-19T10:10:59.185Z,603.00
2023-04-19T10:12:03.723Z,604.00
2023-04-19T10:13:15.296Z,603.00
2023-04-19T10:13:57.963Z,603.00
2023-04-19T10:14:57.952Z,623.00
2023-04-19T10:16:01.773Z,656.00
2023-04-19T10:16:57.978Z,604.00
2023-04-19T10:17:58.017Z,625.00
2023-04-19T10:18:57.956Z,658.00
2023-04-19T10:19:56.960Z,773.00
2023-04-19T10:20:57.922Z,932.00
2023-04-19T10:21:58.042Z,943.00
2023-04-19T10:22:57.911Z,937.00
2023-04-19T10:23:56.933Z,935.00
2023-04-19T10:24:57.899Z,940.00
2023-04-19T10:25:56.915Z,946.00
2023-04-19T10:26:56.916Z,929.00
2023-04-19T10:27:56.901Z,911.00
2023-04-19T10:28:56.931Z,944.00
2023-04-19T10:29:56.867Z,921.00
2023-04-19T10:30:56.886Z,923.00
2023-04-19T10:31:57.992Z,924.00
2023-04-19T10:32:58.010Z,890.00
2023-04-19T10:33:58.125Z,916.00
2023-04-19T10:34:57.085Z,906.00
2023-04-19T10:35:58.147Z,896.00
2023-04-19T10:36:57.194Z,871.00
2023-04-19T10:37:58.371Z,890.00
2023-04-19T10:38:57.294Z,913.00
2023-04-19T10:39:57.304Z,893.00
2023-04-19T10:40:58.354Z,897.00
2023-04-19T10:41:58.416Z,906.00
2023-04-19T10:42:57.455Z,906.00
2023-04-19T10:43:57.937Z,910.00
2023-04-19T10:44:57.559Z,903.00
2023-04-19T10:45:58.599Z,918.00
2023-04-19T10:46:57.631Z,948.00
2023-04-19T10:47:58.738Z,983.00
2023-04-19T10:48:58.659Z,979.00
2023-04-19T10:49:58.684Z,1016.00
2023-04-19T10:50:57.688Z,1026.00
2023-04-19T10:51:58.719Z,1029.00
2023-04-19T10:52:57.773Z,1049.00
2023-04-19T10:53:59.036Z,1074.00
2023-04-19T10:54:58.870Z,1054.00
2023-04-19T10:55:57.905Z,1057.00
2023-04-19T10:56:58.959Z,1040.00
2023-04-19T10:57:58.008Z,1036.00
2023-04-19T10:58:58.044Z,1031.00
2023-04-19T10:59:59.088Z,1031.00
2023-04-19T11:00:58.204Z,1008.00
2023-04-19T11:01:59.322Z,983.00
2023-04-19T11:02:59.393Z,983.00
2023-04-19T11:03:58.359Z,985.00
2023-04-19T11:04:59.253Z,958.00
2023-04-19T11:05:59.353Z,976.00
2023-04-19T11:06:59.321Z,973.00
2023-04-19T11:07:59.338Z,973.00
2023-04-19T11:08:59.401Z,966.00
2023-04-19T11:09:59.432Z,978.00
2023-04-19T11:10:58.411Z,992.00
2023-04-19T11:11:58.433Z,1003.00
2023-04-19T11:12:59.492Z,1001.00
2023-04-19T11:13:58.546Z,998.00
2023-04-19T11:14:58.566Z,1002.00
2023-04-19T11:15:59.606Z,987.00
2023-04-19T11:16:59.621Z,1001.00
2023-04-19T11:18:11.957Z,990.00
2023-04-19T11:18:59.598Z,992.00
2023-04-19T11:19:58.583Z,997.00
2023-04-19T11:20:58.589Z,994.00
2023-04-19T11:21:59.591Z,1002.00
2023-04-19T11:22:59.725Z,998.00
2023-04-19T11:23:59.564Z,1003.00
2023-04-19T11:24:59.544Z,1009.00
2023-04-19T11:26:00.490Z,1007.00
2023-04-19T11:26:59.550Z,1006.00
2023-04-19T11:27:59.533Z,1015.00
2023-04-19T11:28:59.539Z,1016.00
2023-04-19T11:29:59.538Z,1013.00
2023-04-19T11:30:58.557Z,1024.00
2023-04-19T11:31:59.505Z,1032.00
2023-04-19T11:32:58.585Z,1049.00
2023-04-19T11:33:59.505Z,1047.00
2023-04-19T11:34:59.510Z,1068.00
2023-04-19T11:35:58.496Z,1069.00
2023-04-19T11:36:59.504Z,1093.00
2023-04-19T11:37:58.485Z,1092.00
2023-04-19T11:38:59.465Z,1108.00
2023-04-19T11:39:58.530Z,1115.00
2023-04-19T11:40:59.554Z,1089.00
2023-04-19T11:41:59.593Z,1106.00
2023-04-19T11:42:58.633Z,1093.00
2023-04-19T11:43:59.665Z,1097.00
2023-04-19T11:44:59.725Z,1098.00
2023-04-19T11:45:58.774Z,1094.00
2023-04-19T11:46:59.048Z,1099.00
2023-04-19T11:47:59.910Z,1090.00
2023-04-19T11:48:58.996Z,1084.00
2023-04-19T11:49:59.002Z,1086.00
2023-04-19T11:51:00.042Z,1080.00
2023-04-19T11:52:00.104Z,1072.00
2023-04-19T11:53:00.165Z,1081.00
2023-04-19T11:54:00.205Z,1072.00
2023-04-19T11:54:59.156Z,1074.00
2023-04-19T11:55:59.187Z,1066.00
2023-04-19T11:56:59.224Z,1070.00
2023-04-19T11:58:00.275Z,1083.00
2023-04-19T11:58:59.267Z,1088.00
2023-04-19T12:00:00.264Z,1075.00
2023-04-19T12:01:00.276Z,1067.00
2023-04-19T12:01:59.319Z,1071.00
2023-04-19T12:02:59.427Z,1085.00
2023-04-19T12:03:59.484Z,1110.00
2023-04-19T12:04:59.555Z,1085.00
2023-04-19T12:05:59.655Z,1079.00
2023-04-19T12:06:59.420Z,1096.00
2023-04-19T12:08:00.439Z,1095.00
2023-04-19T12:09:00.461Z,1096.00
2023-04-19T12:10:00.464Z,1093.00
2023-04-19T12:10:59.475Z,1100.00
2023-04-19T12:12:00.561Z,1096.00
2023-04-19T12:13:00.557Z,1096.00
2023-04-19T12:13:59.652Z,1088.00
2023-04-19T12:15:00.616Z,1096.00
2023-04-19T12:16:00.600Z,1096.00
2023-04-19T12:16:59.714Z,1083.00
2023-04-19T12:18:00.649Z,1089.00
2023-04-19T12:19:00.641Z,1083.00
2023-04-19T12:20:00.650Z,1075.00
2023-04-19T12:21:01.350Z,1076.00
2023-04-19T12:22:00.740Z,1087.00
2023-04-19T12:23:00.775Z,1090.00
2023-04-19T12:23:59.860Z,1091.00
2023-04-19T12:25:00.881Z,1079.00
2023-04-19T12:25:59.923Z,1089.00
2023-04-19T12:27:00.990Z,1083.00
2023-04-19T12:28:00.005Z,1073.00
2023-04-19T12:29:00.044Z,1084.00
2023-04-19T12:30:01.219Z,1088.00
2023-04-19T12:31:00.130Z,1070.00
2023-04-19T12:32:01.172Z,1076.00
2023-04-19T12:33:01.206Z,1082.00
2023-04-19T12:34:00.278Z,1073.00
2023-04-19T12:35:01.305Z,1077.00
2023-04-19T12:36:00.334Z,1070.00
2023-04-19T12:37:00.382Z,1071.00
2023-04-19T12:38:01.415Z,1059.00
2023-04-19T12:39:01.492Z,1070.00
2023-04-19T12:40:00.522Z,1054.00
2023-04-19T12:41:01.544Z,1071.00
2023-04-19T12:42:01.574Z,1066.00
2023-04-19T12:43:01.582Z,1062.00
2023-04-19T12:44:00.655Z,1081.00
2023-04-19T12:45:00.625Z,1068.00
2023-04-19T12:46:00.771Z,1048.00
2023-04-19T12:47:01.683Z,1061.00
2023-04-19T12:48:01.715Z,1066.00
2023-04-19T12:49:00.760Z,1053.00
2023-04-19T12:50:01.766Z,1076.00
2023-04-19T12:51:01.810Z,1058.00
2023-04-19T12:52:00.766Z,1077.00
2023-04-19T12:53:00.758Z,1070.00
2023-04-19T12:54:01.825Z,1061.00
2023-04-19T12:55:01.784Z,1063.00
2023-04-19T12:56:01.826Z,1075.00
2023-04-19T12:57:02.907Z,1071.00
2023-04-19T12:58:01.998Z,1073.00
2023-04-19T12:59:01.002Z,1058.00
2023-04-19T13:00:01.020Z,1068.00
2023-04-19T13:01:01.109Z,1069.00
2023-04-19T13:02:02.334Z,1059.00
2023-04-19T13:03:02.223Z,1070.00
2023-04-19T13:04:01.480Z,1061.00
2023-04-19T13:05:01.200Z,1060.00
2023-04-19T13:06:02.141Z,1061.00
2023-04-19T13:07:02.183Z,1059.00
2023-04-19T13:08:02.196Z,1068.00
2023-04-19T13:09:01.716Z,1054.00
2023-04-19T13:10:01.233Z,1076.00
2023-04-19T13:11:02.232Z,1050.00
2023-04-19T13:12:02.268Z,1058.00
2023-04-19T13:13:02.273Z,1051.00
2023-04-19T13:14:02.321Z,1065.00
2023-04-19T13:15:03.660Z,1054.00
2023-04-19T13:16:02.360Z,1053.00
2023-04-19T13:17:01.335Z,1060.00
2023-04-19T13:18:01.384Z,1034.00
2023-04-19T13:19:02.291Z,1035.00
2023-04-19T13:20:02.303Z,1043.00
2023-04-19T13:21:02.279Z,1025.00
2023-04-19T13:22:02.285Z,1027.00
2023-04-19T13:23:02.290Z,1035.00
2023-04-19T13:24:02.264Z,1024.00
2023-04-19T13:25:02.270Z,1024.00
2023-04-19T13:26:02.303Z,1012.00
2023-04-19T13:27:02.356Z,1017.00
2023-04-19T13:28:01.262Z,1018.00
2023-04-19T13:29:01.234Z,1021.00
2023-04-19T13:30:02.246Z,1025.00
2023-04-19T13:31:02.328Z,1020.00
2023-04-19T13:32:02.219Z,1006.00
2023-04-19T13:33:01.306Z,1015.00
2023-04-19T13:34:02.236Z,1016.00
2023-04-19T13:35:02.241Z,1024.00
2023-04-19T13:36:02.205Z,1019.00
2023-04-19T13:37:02.196Z,1000.00
2023-04-19T13:38:02.199Z,1002.00
2023-04-19T13:39:02.248Z,1002.00
2023-04-19T13:40:17.478Z,999.00
2023-04-19T13:41:02.175Z,1001.00
2023-04-19T13:42:01.154Z,1003.00
2023-04-19T13:43:02.188Z,1003.00
2023-04-19T13:44:01.150Z,1003.00
2023-04-19T13:45:02.173Z,1014.00
2023-04-19T13:46:02.149Z,1013.00
2023-04-19T13:47:02.178Z,999.00
2023-04-19T13:48:02.238Z,1004.00
2023-04-19T13:49:02.111Z,996.00
2023-04-19T13:50:02.197Z,996.00
2023-04-19T13:51:02.104Z,985.00
2023-04-19T13:52:02.132Z,988.00
2023-04-19T13:53:02.100Z,1001.00
2023-04-19T13:54:01.082Z,989.00
2023-04-19T13:55:02.101Z,979.00
2023-04-19T13:56:02.121Z,972.00
2023-04-19T13:57:02.069Z,987.00
2023-04-19T13:58:02.118Z,978.00
2023-04-19T13:59:01.063Z,990.00
2023-04-19T14:00:01.063Z,983.00
2023-04-19T14:01:02.125Z,963.00
2023-04-19T14:02:01.087Z,975.00
2023-04-19T14:03:02.271Z,981.00
2023-04-19T14:04:02.494Z,975.00
2023-04-19T14:05:02.049Z,981.00
2023-04-19T14:06:02.029Z,977.00
2023-04-19T14:07:01.995Z,977.00
2023-04-19T14:08:02.131Z,973.00
2023-04-19T14:09:00.995Z,964.00
2023-04-19T14:10:02.031Z,963.00
2023-04-19T14:11:01.974Z,974.00
2023-04-19T14:12:01.966Z,959.00
2023-04-19T14:13:00.955Z,977.00
2023-04-19T14:14:01.957Z,969.00
2023-04-19T14:15:01.962Z,976.00
2023-04-19T14:16:00.958Z,981.00
2023-04-19T14:17:02.002Z,953.00
2023-04-19T14:18:01.998Z,957.00
2023-04-19T14:19:01.924Z,951.00
2023-04-19T14:20:00.926Z,975.00
2023-04-19T14:21:00.906Z,962.00
2023-04-19T14:22:01.933Z,978.00
2023-04-19T14:23:01.922Z,961.00
2023-04-19T14:24:00.911Z,958.00
2023-04-19T14:25:00.947Z,959.00
2023-04-19T14:26:02.032Z,964.00
2023-04-19T14:28:00.955Z,965.00
2023-04-19T14:29:01.965Z,960.00
2023-04-19T14:30:01.940Z,981.00
2023-04-19T14:31:02.008Z,972.00
2023-04-19T14:32:13.499Z,977.00
2023-04-19T14:33:02.005Z,979.00
2023-04-19T14:34:01.950Z,980.00
2023-04-19T14:35:00.930Z,981.00
2023-04-19T14:36:01.919Z,985.00
2023-04-19T14:37:01.902Z,978.00
2023-04-19T14:38:01.960Z,985.00
2023-04-19T14:39:01.886Z,980.00
2023-04-19T14:40:01.901Z,982.00
2023-04-19T14:41:01.903Z,963.00
2023-04-19T14:42:01.868Z,960.00
2023-04-19T14:43:01.912Z,971.00
2023-04-19T14:44:00.862Z,963.00
2023-04-19T14:45:00.858Z,969.00
2023-04-19T14:46:00.938Z,962.00
2023-04-19T14:47:01.827Z,971.00
2023-04-19T14:48:00.926Z,959.00
2023-04-19T14:49:00.820Z,961.00
2023-04-19T14:50:00.830Z,956.00
2023-04-19T14:51:00.792Z,953.00
2023-04-19T14:52:00.789Z,968.00
2023-04-19T14:53:00.797Z,970.00
2023-04-19T14:54:00.798Z,964.00
2023-04-19T14:55:01.773Z,962.00
2023-04-19T14:56:01.761Z,959.00
2023-04-19T14:57:00.801Z,961.00
2023-04-19T14:58:01.766Z,968.00
2023-04-19T14:59:00.749Z,968.00
2023-04-19T15:00:01.855Z,970.00
2023-04-19T15:01:01.779Z,970.00
2023-04-19T15:02:00.766Z,958.00
2023-04-19T15:03:00.817Z,962.00
2023-04-19T15:04:02.035Z,962.00
2023-04-19T15:05:02.117Z,961.00
2023-04-19T15:06:00.699Z,960.00
2023-04-19T15:07:01.703Z,965.00
2023-04-19T15:08:01.709Z,955.00
2023-04-19T15:09:00.703Z,956.00
2023-04-19T15:10:00.747Z,960.00
2023-04-19T15:11:01.673Z,953.00
2023-04-19T15:12:00.687Z,957.00
2023-04-19T15:13:00.665Z,956.00
2023-04-19T15:14:00.661Z,958.00
2023-04-19T15:15:00.654Z,952.00
2023-04-19T15:16:03.093Z,964.00
2023-04-19T15:17:01.658Z,963.00
2023-04-19T15:18:01.675Z,954.00
2023-04-19T15:19:01.626Z,947.00
2023-04-19T15:20:00.738Z,951.00
2023-04-19T15:21:01.613Z,952.00
2023-04-19T15:22:00.611Z,943.00
2023-04-19T15:23:01.622Z,1044.00
2023-04-19T15:24:00.596Z,1079.00
2023-04-19T15:25:01.610Z,1064.00
2023-04-19T15:26:01.661Z,1082.00
2023-04-19T15:27:00.593Z,1202.00
2023-04-19T15:28:00.595Z,1193.00
2023-04-19T15:29:01.579Z,1156.00
2023-04-19T15:30:01.632Z,1150.00
